Terminal Aerodrome Forecast
Issued by NWS Twin Cities, MN

Home | Current Version | Previous Version | Text Only | Print | Product List | Glossary On
Versions: 1 2 3 4 5 6 7 8 9 10 11 12 13 14 15 16 17 18 19
000
FTUS43 KMPX 191100
TAFSTC
TAF
KSTC 191120Z 1912/2012 14016G26KT P6SM VCSH SCT050 BKN080
      TEMPO 1912/1915 6SM -SHRA BKN050
     FM191700 19015G25KT P6SM VCSH SCT040 BKN090
     FM192100 25011KT P6SM SCT100 BKN250
     FM200300 24005KT P6SM SKC=

USA.gov is the U.S. government's official web portal to all federal, state and local government web resources and services.